createdAt,value
2022-08-31T00:02:20.156Z,101811.00
2022-08-31T00:04:46.497Z,101953.38
2022-08-31T00:07:12.781Z,102003.31
2022-08-31T00:09:39.039Z,101972.88
2022-08-31T00:12:05.285Z,102011.47
2022-08-31T00:14:31.523Z,102015.47
2022-08-31T00:16:59.030Z,101987.19
2022-08-31T00:19:25.310Z,101952.28
2022-08-31T00:21:51.567Z,101949.97
2022-08-31T00:24:17.814Z,101933.34
2022-08-31T00:26:44.115Z,101881.41
2022-08-31T00:29:10.705Z,101856.84
2022-08-31T00:31:37.043Z,101818.06
2022-08-31T00:34:03.393Z,101907.41
2022-08-31T00:36:29.645Z,101897.94
2022-08-31T00:38:55.950Z,101882.19
2022-08-31T00:41:23.238Z,101855.13
2022-08-31T00:43:50.556Z,101864.31
2022-08-31T00:46:18.881Z,101841.19
2022-08-31T00:48:46.154Z,101862.16
2022-08-31T00:51:12.401Z,101840.66
2022-08-31T00:53:44.720Z,101806.81
2022-08-31T00:56:11.013Z,101790.69
2022-08-31T00:58:37.249Z,101781.69
2022-08-31T01:01:03.685Z,101782.94
2022-08-31T01:03:29.966Z,101812.97
2022-08-31T01:05:56.226Z,101780.00
2022-08-31T01:08:30.745Z,101779.47
2022-08-31T01:10:57.402Z,101796.91
2022-08-31T01:13:23.637Z,101787.47
2022-08-31T01:15:56.827Z,101802.38
2022-08-31T01:18:23.410Z,101807.41
2022-08-31T01:20:54.397Z,101812.59
2022-08-31T01:23:22.336Z,101788.25
2022-08-31T01:25:48.710Z,101784.50
2022-08-31T01:28:14.950Z,101784.72
2022-08-31T01:30:41.393Z,101807.22
2022-08-31T01:33:07.633Z,101812.44
2022-08-31T01:35:33.887Z,101807.06
2022-08-31T01:38:00.160Z,101804.44
2022-08-31T01:40:38.158Z,101803.72
2022-08-31T01:43:04.465Z,101808.72
2022-08-31T01:45:30.717Z,101810.53
2022-08-31T01:47:58.479Z,101800.69
2022-08-31T01:50:24.755Z,101784.63
2022-08-31T01:52:51.007Z,101772.97
2022-08-31T01:55:17.279Z,101779.38
2022-08-31T01:57:43.522Z,101776.00
2022-08-31T02:00:10.090Z,101804.72
2022-08-31T02:02:36.356Z,101804.38
2022-08-31T02:05:02.711Z,101798.13
2022-08-31T02:07:28.954Z,101790.88
2022-08-31T02:09:55.222Z,101822.66
2022-08-31T02:12:21.481Z,101836.53
2022-08-31T02:14:47.729Z,101841.97
2022-08-31T02:17:13.990Z,101829.66
2022-08-31T02:19:40.242Z,101812.16
2022-08-31T02:22:07.078Z,101818.78
2022-08-31T02:24:33.318Z,101800.88
2022-08-31T02:26:59.575Z,101779.81
2022-08-31T02:29:25.832Z,101779.44
2022-08-31T02:31:52.179Z,101782.25
2022-08-31T02:34:18.523Z,101781.91
2022-08-31T02:36:44.783Z,101776.25
2022-08-31T02:39:11.413Z,101779.69
2022-08-31T02:41:37.671Z,101774.09
2022-08-31T02:44:03.943Z,101766.94
2022-08-31T02:46:30.258Z,101793.50
2022-08-31T02:48:56.545Z,101790.72
2022-08-31T02:51:22.793Z,101805.59
2022-08-31T02:53:49.036Z,101837.88
2022-08-31T02:56:15.295Z,101836.06
2022-08-31T02:58:41.588Z,101843.47
2022-08-31T03:01:07.909Z,101818.72
2022-08-31T03:03:34.349Z,101813.31
2022-08-31T03:06:00.777Z,101796.66
2022-08-31T03:08:27.089Z,101790.41
2022-08-31T03:10:55.818Z,101786.41
2022-08-31T03:13:22.067Z,101774.38
2022-08-31T03:15:48.350Z,101775.16
2022-08-31T03:18:14.688Z,101760.97
2022-08-31T03:20:40.927Z,101759.78
2022-08-31T03:23:07.177Z,101763.81
2022-08-31T03:25:34.727Z,101767.63
2022-08-31T03:28:00.978Z,101770.03
2022-08-31T03:30:27.702Z,101756.78
2022-08-31T03:33:02.443Z,101731.00
2022-08-31T03:35:29.474Z,101785.03
2022-08-31T03:37:55.739Z,101816.88
2022-08-31T03:40:22.064Z,101807.84
2022-08-31T03:42:48.369Z,101802.28
2022-08-31T03:45:14.605Z,101850.63
2022-08-31T03:47:44.908Z,101863.63
2022-08-31T03:50:11.955Z,101854.41
2022-08-31T03:52:38.411Z,101820.88
2022-08-31T03:55:04.838Z,101774.38
2022-08-31T03:57:31.081Z,101814.72
2022-08-31T03:59:57.414Z,101814.94
2022-08-31T04:02:23.760Z,101831.97
2022-08-31T04:04:50.783Z,101818.09
2022-08-31T04:07:17.159Z,101811.88
2022-08-31T04:09:43.410Z,101808.31
2022-08-31T04:12:12.458Z,101816.13
2022-08-31T04:14:38.720Z,101820.38
2022-08-31T04:17:04.981Z,101865.06
2022-08-31T04:19:31.679Z,101865.84
2022-08-31T04:21:57.955Z,101852.22
2022-08-31T04:24:24.213Z,101821.16
2022-08-31T04:26:50.777Z,101848.06
2022-08-31T04:29:17.032Z,101880.13
2022-08-31T04:31:43.281Z,101867.69
2022-08-31T04:34:09.541Z,101853.06
2022-08-31T04:36:35.806Z,101867.09
2022-08-31T04:39:02.276Z,101882.13
2022-08-31T04:41:28.951Z,101865.06
2022-08-31T04:43:56.233Z,101844.63
2022-08-31T04:46:22.683Z,101841.22
2022-08-31T04:48:48.962Z,101856.09
2022-08-31T04:51:16.109Z,101927.63
2022-08-31T04:53:42.477Z,101916.59
2022-08-31T04:56:09.894Z,101951.09
2022-08-31T04:58:36.129Z,101975.00
2022-08-31T05:01:02.402Z,101942.84
2022-08-31T05:03:28.653Z,101907.28
2022-08-31T05:05:54.898Z,101826.22
2022-08-31T05:08:21.147Z,101916.63
2022-08-31T05:10:47.404Z,101990.47
2022-08-31T05:13:13.663Z,101980.94
2022-08-31T05:15:40.686Z,101958.72
2022-08-31T05:18:06.960Z,101986.84
2022-08-31T05:20:33.222Z,102072.28
2022-08-31T05:22:59.470Z,102114.84
2022-08-31T05:25:25.722Z,102096.41
2022-08-31T05:27:52.264Z,102016.53
2022-08-31T05:30:21.083Z,101939.47
2022-08-31T05:32:47.317Z,101862.91
2022-08-31T05:35:13.608Z,101807.81
2022-08-31T05:37:39.860Z,101741.94
2022-08-31T05:40:06.561Z,101717.50
2022-08-31T05:42:32.894Z,101748.59
2022-08-31T05:44:59.154Z,101883.38
2022-08-31T05:47:25.400Z,101928.34
2022-08-31T05:49:51.909Z,101951.38
2022-08-31T05:52:18.197Z,101967.44
2022-08-31T05:54:44.791Z,101998.25
2022-08-31T05:57:11.024Z,102025.25
2022-08-31T05:59:38.114Z,102055.34
2022-08-31T06:02:04.487Z,102093.88
2022-08-31T06:04:30.803Z,102120.94
2022-08-31T06:06:57.064Z,102063.06
2022-08-31T06:09:23.311Z,101963.53
2022-08-31T06:11:49.619Z,101813.13
2022-08-31T06:14:15.856Z,101718.09
2022-08-31T06:16:42.837Z,101638.53
2022-08-31T06:19:09.143Z,101564.88
2022-08-31T06:21:40.721Z,101501.75
2022-08-31T06:24:16.870Z,101427.34
2022-08-31T06:26:43.121Z,101394.84
2022-08-31T06:29:09.366Z,101332.63
2022-08-31T06:31:36.499Z,101395.03
2022-08-31T06:34:02.851Z,101412.72
2022-08-31T06:36:29.703Z,101319.84
2022-08-31T06:38:56.149Z,101338.94
2022-08-31T06:41:23.407Z,101306.75
2022-08-31T06:43:49.734Z,101405.81
2022-08-31T06:46:16.201Z,101375.25
2022-08-31T06:48:42.465Z,101415.22
2022-08-31T06:51:08.744Z,101422.63
2022-08-31T06:53:35.574Z,101495.94
2022-08-31T06:56:20.386Z,101423.00
2022-08-31T06:58:47.709Z,101542.63
2022-08-31T07:01:35.182Z,101435.56
2022-08-31T07:04:03.433Z,101350.34
2022-08-31T07:06:30.381Z,101421.50
2022-08-31T07:08:57.359Z,101404.97
2022-08-31T07:11:24.922Z,101312.50
2022-08-31T07:13:51.706Z,101101.72
2022-08-31T07:16:18.340Z,101228.63
2022-08-31T07:18:44.893Z,101192.88
2022-08-31T07:21:11.129Z,101139.03
2022-08-31T07:23:37.365Z,101264.78
2022-08-31T07:26:04.638Z,101235.16
2022-08-31T07:28:30.874Z,101194.44
2022-08-31T07:30:57.178Z,101230.16
2022-08-31T07:33:23.441Z,101173.63
2022-08-31T07:35:49.721Z,101053.38
2022-08-31T07:38:15.991Z,101157.50
2022-08-31T07:40:42.303Z,101258.50
2022-08-31T07:43:08.626Z,101326.94
2022-08-31T07:45:37.691Z,101245.53
2022-08-31T07:48:05.325Z,101076.94
2022-08-31T07:50:31.596Z,101197.44
2022-08-31T07:52:57.879Z,101007.44
2022-08-31T07:55:24.954Z,100942.84
2022-08-31T07:57:51.201Z,101144.66
2022-08-31T08:00:20.738Z,101152.47
2022-08-31T08:02:52.677Z,100978.69
2022-08-31T08:05:19.994Z,101246.47
2022-08-31T08:07:53.763Z,101026.72
2022-08-31T08:10:21.684Z,101029.97
2022-08-31T08:12:49.336Z,100834.31
2022-08-31T08:15:17.495Z,100703.69
2022-08-31T08:17:43.747Z,100961.88
2022-08-31T08:20:13.563Z,101050.59
2022-08-31T08:22:51.616Z,101096.94
2022-08-31T08:25:25.697Z,101025.22
2022-08-31T08:27:53.074Z,100997.69
2022-08-31T08:30:19.354Z,100979.47
2022-08-31T08:32:45.611Z,100996.81
2022-08-31T08:35:12.012Z,101057.84
2022-08-31T08:37:57.382Z,100675.22
2022-08-31T08:40:31.302Z,100759.13
2022-08-31T08:42:57.719Z,100653.47
2022-08-31T08:45:23.962Z,100667.22
2022-08-31T08:47:50.219Z,100728.44
2022-08-31T08:50:16.476Z,100705.44
2022-08-31T08:52:43.481Z,100630.03
2022-08-31T08:55:20.829Z,100810.09
2022-08-31T08:57:47.250Z,100908.47
2022-08-31T09:00:17.557Z,100883.84
2022-08-31T09:02:53.996Z,100687.47
2022-08-31T09:05:32.430Z,100715.13
2022-08-31T09:08:13.906Z,100878.00
2022-08-31T09:10:44.567Z,100735.81
2022-08-31T09:13:16.898Z,100725.34
2022-08-31T09:15:46.893Z,100729.81
2022-08-31T09:18:28.066Z,100627.66
2022-08-31T09:21:13.273Z,100875.06
2022-08-31T09:23:40.044Z,100987.84
2022-08-31T09:26:08.397Z,100976.13
2022-08-31T09:28:36.166Z,100786.91
2022-08-31T09:31:02.436Z,100907.03
2022-08-31T09:33:29.575Z,101234.91
2022-08-31T09:36:12.810Z,101143.75
2022-08-31T09:38:39.057Z,100587.41
2022-08-31T09:41:17.125Z,100437.06
2022-08-31T09:43:43.390Z,100387.34
2022-08-31T09:46:11.132Z,100317.25
2022-08-31T09:48:57.643Z,100516.56
2022-08-31T09:51:32.101Z,100879.28
2022-08-31T09:53:59.098Z,100802.41
2022-08-31T09:56:25.469Z,101130.63
2022-08-31T09:58:52.450Z,101379.09
2022-08-31T10:01:26.171Z,101235.81
2022-08-31T10:04:06.960Z,101437.94
2022-08-31T10:06:38.479Z,101156.72
2022-08-31T10:09:06.339Z,100923.88
2022-08-31T10:11:32.591Z,100937.31
2022-08-31T10:13:58.804Z,100497.97
2022-08-31T10:16:27.725Z,100401.78
2022-08-31T10:18:58.632Z,100419.75
2022-08-31T10:21:31.062Z,100372.09
2022-08-31T10:24:02.597Z,100597.94
2022-08-31T10:26:33.317Z,100596.28
2022-08-31T10:29:00.113Z,100649.91
2022-08-31T10:31:37.030Z,100479.91
2022-08-31T10:34:07.456Z,100577.31
2022-08-31T10:36:34.600Z,100458.22
2022-08-31T10:39:00.858Z,100363.91
2022-08-31T10:41:28.767Z,100285.28
2022-08-31T10:44:01.033Z,99839.28
2022-08-31T10:46:27.515Z,100144.16
2022-08-31T10:48:53.797Z,99934.47
2022-08-31T10:51:32.646Z,99914.66
2022-08-31T10:54:07.163Z,100162.34
2022-08-31T10:56:40.472Z,100399.44
2022-08-31T10:59:25.270Z,100141.28
2022-08-31T11:01:55.392Z,100075.00
2022-08-31T11:04:40.312Z,100169.44
2022-08-31T11:07:11.630Z,99955.53
2022-08-31T11:09:53.568Z,100155.56
2022-08-31T11:12:20.105Z,99949.09
2022-08-31T11:14:58.525Z,100163.22
2022-08-31T11:17:30.553Z,100270.34
2022-08-31T11:20:15.346Z,100450.00
2022-08-31T11:22:59.972Z,100057.22
2022-08-31T11:25:41.691Z,100319.41
2022-08-31T11:28:12.436Z,100253.72
2022-08-31T11:30:42.124Z,100318.94
2022-08-31T11:33:09.514Z,100474.50
2022-08-31T11:35:49.079Z,100558.88
2022-08-31T11:38:33.990Z,100732.22
2022-08-31T11:41:00.678Z,100761.00
2022-08-31T11:43:33.102Z,100778.91
2022-08-31T11:46:18.057Z,101021.44
2022-08-31T11:48:50.294Z,100988.34
2022-08-31T11:51:28.431Z,100802.78
2022-08-31T11:53:54.679Z,100724.75
2022-08-31T11:56:30.150Z,100712.13
2022-08-31T11:59:16.345Z,100869.16
2022-08-31T12:01:42.627Z,101133.63
2022-08-31T12:04:22.176Z,101030.06
2022-08-31T12:06:50.038Z,101179.25
2022-08-31T12:09:26.302Z,101081.72
2022-08-31T12:11:58.137Z,100905.72
2022-08-31T12:14:27.351Z,100902.84
2022-08-31T12:17:12.343Z,100661.06
2022-08-31T12:19:43.544Z,100773.78
2022-08-31T12:22:14.809Z,100668.22
2022-08-31T12:24:56.421Z,100802.91
2022-08-31T12:27:41.584Z,100939.66
2022-08-31T12:30:12.657Z,100836.75
2022-08-31T12:32:39.582Z,100616.38
2022-08-31T12:35:14.395Z,100517.38
2022-08-31T12:37:40.637Z,100464.88
2022-08-31T12:40:20.386Z,100375.22
2022-08-31T12:42:54.586Z,100487.25
2022-08-31T12:45:24.436Z,100560.72
2022-08-31T12:48:04.785Z,100507.25
2022-08-31T12:50:51.263Z,100565.41
2022-08-31T12:53:38.437Z,100585.22
2022-08-31T12:56:24.902Z,100737.56
2022-08-31T12:59:09.947Z,100788.06
2022-08-31T13:01:39.427Z,100895.88
2022-08-31T13:04:05.841Z,100967.06
2022-08-31T13:06:32.898Z,100922.34
2022-08-31T13:08:59.287Z,100927.19
2022-08-31T13:11:35.460Z,101060.25
2022-08-31T13:14:14.318Z,100772.38
2022-08-31T13:16:41.371Z,100740.34
2022-08-31T13:19:07.646Z,100707.22
2022-08-31T13:21:33.966Z,100791.03
2022-08-31T13:24:04.068Z,100713.28
2022-08-31T13:26:30.318Z,100708.66
2022-08-31T13:28:57.982Z,100991.41
2022-08-31T13:31:25.301Z,101107.03
2022-08-31T13:33:51.608Z,101009.13
2022-08-31T13:36:21.710Z,100830.19
2022-08-31T13:38:50.967Z,101025.53
2022-08-31T13:41:23.068Z,101172.31
2022-08-31T13:43:51.805Z,101045.22
2022-08-31T13:46:21.655Z,100991.44
2022-08-31T13:48:48.556Z,101044.97
2022-08-31T13:51:18.329Z,101093.28
2022-08-31T13:54:04.193Z,101124.22
2022-08-31T13:56:34.811Z,101137.34
2022-08-31T13:59:19.847Z,101332.03
2022-08-31T14:01:49.478Z,101269.25
2022-08-31T14:04:48.154Z,101373.19
2022-08-31T14:07:14.344Z,101372.59
2022-08-31T14:09:41.875Z,101401.31
2022-08-31T14:12:08.161Z,101349.75
2022-08-31T14:14:40.883Z,101234.88
2022-08-31T14:17:07.805Z,101119.69
2022-08-31T14:19:35.522Z,101080.47
2022-08-31T14:22:23.052Z,101062.78
2022-08-31T14:24:49.281Z,101079.38
2022-08-31T14:27:15.525Z,100998.53
2022-08-31T14:29:41.854Z,101016.75
2022-08-31T14:32:08.108Z,101053.66
2022-08-31T14:34:37.379Z,101159.25
2022-08-31T14:37:06.843Z,101241.91
2022-08-31T14:39:36.918Z,101324.38
2022-08-31T14:42:05.963Z,101384.25
2022-08-31T14:44:33.208Z,101416.88
2022-08-31T14:46:59.504Z,101311.41
2022-08-31T14:49:25.757Z,101293.13
2022-08-31T14:51:52.018Z,101311.13
2022-08-31T14:54:18.252Z,101268.47
2022-08-31T14:56:46.012Z,101234.28
2022-08-31T14:59:12.309Z,101290.88
2022-08-31T15:01:38.612Z,101266.81
2022-08-31T15:04:04.900Z,101162.66
2022-08-31T15:06:31.773Z,101243.03
2022-08-31T15:08:58.036Z,101249.22
2022-08-31T15:11:24.282Z,101321.53
2022-08-31T15:13:50.538Z,101255.81
2022-08-31T15:16:16.851Z,101251.00
2022-08-31T15:18:43.110Z,101270.53
2022-08-31T15:21:09.816Z,101221.09
2022-08-31T15:23:36.062Z,101209.13
2022-08-31T15:26:06.886Z,101182.50
2022-08-31T15:28:33.700Z,101124.91
2022-08-31T15:30:59.941Z,101154.00
2022-08-31T15:33:26.197Z,101035.25
2022-08-31T15:36:01.023Z,101009.75
2022-08-31T15:38:27.273Z,100965.53
2022-08-31T15:40:53.550Z,100926.72
2022-08-31T15:43:19.863Z,100894.28
2022-08-31T15:45:46.163Z,100861.47
2022-08-31T15:48:12.430Z,100817.44
2022-08-31T15:50:38.780Z,100856.03
2022-08-31T15:53:09.592Z,100840.09
2022-08-31T15:55:36.606Z,100854.75
2022-08-31T15:58:02.941Z,100761.22
2022-08-31T16:00:29.268Z,100777.31
2022-08-31T16:02:55.599Z,100677.81
2022-08-31T16:05:22.014Z,100750.13
2022-08-31T16:07:48.340Z,100730.44
2022-08-31T16:10:19.202Z,100678.16
2022-08-31T16:12:46.466Z,100765.38
2022-08-31T16:15:14.155Z,100709.84
2022-08-31T16:17:40.913Z,100675.34
2022-08-31T16:20:07.930Z,100700.59
2022-08-31T16:22:34.279Z,100690.13
2022-08-31T16:25:00.601Z,100802.19
2022-08-31T16:27:26.920Z,100854.75
2022-08-31T16:29:53.371Z,100834.44
2022-08-31T16:32:19.739Z,100882.19
2022-08-31T16:34:46.085Z,100957.84
2022-08-31T16:37:12.414Z,100929.44
2022-08-31T16:39:41.985Z,100914.16
2022-08-31T16:42:08.683Z,100964.63
2022-08-31T16:44:36.816Z,100932.94
2022-08-31T16:47:03.841Z,100983.44
2022-08-31T16:49:30.155Z,101039.72
2022-08-31T16:51:56.467Z,101115.75
2022-08-31T16:54:22.793Z,101307.53
2022-08-31T16:56:52.066Z,101541.78
2022-08-31T16:59:18.745Z,101712.09
2022-08-31T17:01:45.394Z,101853.66
2022-08-31T17:04:12.972Z,101953.06
2022-08-31T17:06:39.712Z,101948.00
2022-08-31T17:09:07.033Z,101949.06
2022-08-31T17:11:34.308Z,101943.50
2022-08-31T17:14:00.871Z,101993.59
2022-08-31T17:16:28.414Z,102016.63
2022-08-31T17:18:55.184Z,101978.53
2022-08-31T17:21:22.667Z,101947.81
2022-08-31T17:23:49.249Z,101948.63
2022-08-31T17:26:15.587Z,101992.25
2022-08-31T17:28:42.709Z,101976.13
2022-08-31T17:31:09.544Z,101955.25
2022-08-31T17:33:35.955Z,101905.75
2022-08-31T17:36:02.330Z,101892.03
2022-08-31T17:38:28.861Z,101945.69
2022-08-31T17:40:55.284Z,101964.44
2022-08-31T17:43:21.925Z,101965.22
2022-08-31T17:45:51.496Z,101976.28
2022-08-31T17:48:20.399Z,101955.41
2022-08-31T17:50:49.306Z,101940.59
2022-08-31T17:53:15.652Z,101927.41
2022-08-31T17:55:42.000Z,101898.31
2022-08-31T17:58:08.336Z,101895.94
2022-08-31T18:00:34.763Z,101926.28
2022-08-31T18:03:01.136Z,101961.94
2022-08-31T18:05:27.463Z,101928.38
2022-08-31T18:07:53.803Z,101944.22
2022-08-31T18:10:20.265Z,101944.19
2022-08-31T18:12:46.593Z,101964.78
2022-08-31T18:15:12.926Z,101989.03
2022-08-31T18:17:39.290Z,101988.13
2022-08-31T18:20:05.780Z,101968.34
2022-08-31T18:22:32.130Z,101974.91
2022-08-31T18:24:58.473Z,101993.59
2022-08-31T18:27:24.804Z,101982.03
2022-08-31T18:29:51.127Z,101938.00
2022-08-31T18:32:17.455Z,101906.34
2022-08-31T18:34:43.802Z,101879.94
2022-08-31T18:37:10.137Z,101858.56
2022-08-31T18:39:52.438Z,101882.56
2022-08-31T18:42:19.567Z,101887.06
2022-08-31T18:44:45.908Z,101882.31
2022-08-31T18:47:12.454Z,101889.97
2022-08-31T18:49:39.320Z,101904.91
2022-08-31T18:52:06.121Z,101920.47
2022-08-31T18:54:32.476Z,101923.38
2022-08-31T18:56:58.856Z,101921.25
2022-08-31T18:59:25.199Z,101907.78
2022-08-31T19:01:51.664Z,101943.75
2022-08-31T19:04:21.746Z,101979.94
2022-08-31T19:06:48.478Z,101990.97
2022-08-31T19:09:14.809Z,102003.66
2022-08-31T19:11:41.179Z,101975.31
2022-08-31T19:14:07.715Z,101948.78
2022-08-31T19:16:36.126Z,101910.25
2022-08-31T19:19:02.499Z,101890.47
2022-08-31T19:21:30.138Z,101874.06
2022-08-31T19:23:56.669Z,101883.00
2022-08-31T19:26:33.984Z,101891.66
2022-08-31T19:29:00.363Z,101879.22
2022-08-31T19:31:27.151Z,101870.75
2022-08-31T19:33:56.468Z,101872.06
2022-08-31T19:36:23.265Z,101885.47
2022-08-31T19:38:50.711Z,101895.94
2022-08-31T19:41:18.026Z,101920.63
2022-08-31T19:43:50.312Z,101917.72
2022-08-31T19:46:21.870Z,101918.41
2022-08-31T19:48:48.432Z,101912.78
2022-08-31T19:51:15.261Z,101927.00
2022-08-31T19:53:44.421Z,101908.31
2022-08-31T19:56:11.431Z,101898.59
2022-08-31T19:58:37.766Z,101893.03
2022-08-31T20:01:07.324Z,101894.53
2022-08-31T20:03:33.668Z,101877.34
2022-08-31T20:06:06.999Z,101879.72
2022-08-31T20:08:33.743Z,101884.63
2022-08-31T20:11:00.077Z,101894.88
2022-08-31T20:13:26.406Z,101911.81
2022-08-31T20:15:52.884Z,101896.63
2022-08-31T20:18:19.380Z,101957.03
2022-08-31T20:20:46.087Z,102001.69
2022-08-31T20:23:12.995Z,101986.03
2022-08-31T20:25:39.885Z,101938.63
2022-08-31T20:28:06.291Z,101900.91
2022-08-31T20:30:37.508Z,101904.19
2022-08-31T20:33:04.029Z,101896.31
2022-08-31T20:35:33.591Z,101882.59
2022-08-31T20:37:59.915Z,101868.63
2022-08-31T20:40:26.272Z,101836.78
2022-08-31T20:42:52.665Z,101849.19
2022-08-31T20:45:19.003Z,101882.34
2022-08-31T20:47:45.249Z,101876.28
2022-08-31T20:50:11.579Z,101876.47
2022-08-31T20:52:37.930Z,101918.31
2022-08-31T20:55:04.473Z,101915.31
2022-08-31T20:57:31.563Z,101887.84
2022-08-31T20:59:57.803Z,101900.31
2022-08-31T21:02:24.119Z,101877.78
2022-08-31T21:04:50.384Z,101858.75
2022-08-31T21:07:17.155Z,101863.56
2022-08-31T21:09:43.746Z,101841.97
2022-08-31T21:12:10.121Z,101878.94
2022-08-31T21:14:38.628Z,101898.94
2022-08-31T21:17:05.178Z,101880.31
2022-08-31T21:19:31.956Z,101870.56
2022-08-31T21:21:58.190Z,101875.59
2022-08-31T21:24:24.438Z,101859.09
2022-08-31T21:26:53.141Z,101850.19
2022-08-31T21:29:19.394Z,101834.56
2022-08-31T21:31:48.938Z,101831.00
2022-08-31T21:34:22.165Z,101843.53
2022-08-31T21:36:48.436Z,101852.72
2022-08-31T21:39:15.299Z,101861.06
2022-08-31T21:41:41.663Z,101826.50
2022-08-31T21:44:07.900Z,101830.34
2022-08-31T21:46:34.396Z,101835.59
2022-08-31T21:49:00.659Z,101850.25
2022-08-31T21:51:30.968Z,101854.69
2022-08-31T21:54:01.014Z,101862.78
2022-08-31T21:56:27.989Z,101849.81
2022-08-31T21:58:54.249Z,101835.53
2022-08-31T22:01:20.565Z,101891.69
2022-08-31T22:03:47.297Z,101887.91
2022-08-31T22:06:14.292Z,101873.75
2022-08-31T22:08:40.546Z,101881.63
2022-08-31T22:11:07.444Z,101884.63
2022-08-31T22:13:34.087Z,101864.97
2022-08-31T22:16:05.742Z,101857.78
2022-08-31T22:19:00.754Z,101848.78
2022-08-31T22:21:19.536Z,101849.25
2022-08-31T22:23:45.781Z,101850.28
2022-08-31T22:26:12.138Z,101854.97
2022-08-31T22:28:38.480Z,101849.59
2022-08-31T22:31:04.783Z,101866.94
2022-08-31T22:33:31.072Z,101844.06
2022-08-31T22:35:57.317Z,101894.63
2022-08-31T22:38:23.545Z,101881.81
2022-08-31T22:40:49.998Z,101860.25
2022-08-31T22:43:16.658Z,101843.72
2022-08-31T22:45:47.571Z,101830.69
2022-08-31T22:48:14.828Z,101855.97
2022-08-31T22:50:41.115Z,101880.16
2022-08-31T22:53:07.370Z,101887.09
2022-08-31T22:55:36.973Z,101885.06
2022-08-31T22:58:03.565Z,101865.09
2022-08-31T23:00:31.947Z,101883.44
2022-08-31T23:02:58.188Z,101870.78
2022-08-31T23:05:24.601Z,101875.22
2022-08-31T23:07:50.855Z,101850.25
2022-08-31T23:10:17.415Z,101842.28
2022-08-31T23:12:47.320Z,101852.06
2022-08-31T23:15:13.915Z,101837.72
2022-08-31T23:17:40.145Z,101850.03
2022-08-31T23:20:06.560Z,101875.38
2022-08-31T23:22:32.806Z,101908.72
2022-08-31T23:24:59.054Z,101880.81
2022-08-31T23:27:25.286Z,101868.81
2022-08-31T23:29:52.691Z,101859.75
2022-08-31T23:32:19.566Z,101858.38
2022-08-31T23:34:46.352Z,101856.63
2022-08-31T23:37:12.717Z,101864.25
2022-08-31T23:39:40.021Z,101855.75
2022-08-31T23:42:06.660Z,101845.66
2022-08-31T23:44:32.910Z,101827.31
2022-08-31T23:46:59.140Z,101818.34
2022-08-31T23:49:25.382Z,101829.63
2022-08-31T23:51:51.615Z,101818.34
2022-08-31T23:54:17.849Z,101813.53
2022-08-31T23:56:44.618Z,101810.81
2022-08-31T23:59:11.616Z,101813.88
